Time;durP1;ratioP1;P1;durP2;ratioP2;P2;SDS_P1;SDS_P2;PMS_P1;PMS_P2;Temp;Humidity;BMP_temperature;BMP_pressure;BME280_temperature;BME280_humidity;BME280_pressure;Samples;Min_cycle;Max_cycle;Signal;HPM_P1;HPM_P2
2021/07/23 00:00:33;;;;;;;15.38;9.30;;;;;;;15.27;76.35;102200.19;4894888;29;20028;-94
2021/07/23 00:02:59;;;;;;;15.75;9.10;;;;;;;15.28;76.09;102193.94;4879319;29;20154;-92
2021/07/23 00:05:25;;;;;;;13.57;9.32;;;;;;;15.34;76.04;102193.63;4894485;29;20024;-92
2021/07/23 00:07:50;;;;;;;15.65;8.98;;;;;;;15.43;75.25;102197.59;4894452;29;20057;-92
2021/07/23 00:10:16;;;;;;;14.35;9.13;;;;;;;15.51;75.20;102192.72;4879010;29;20076;-93
2021/07/23 00:12:41;;;;;;;16.88;9.40;;;;;;;15.60;74.92;102186.03;4878835;29;20027;-92
2021/07/23 00:15:10;;;;;;;14.68;9.18;;;;;;;15.72;74.60;102191.66;4878936;29;20016;-92
2021/07/23 00:17:36;;;;;;;16.90;9.63;;;;;;;15.82;74.27;102182.22;4878973;29;20016;-91
2021/07/23 00:20:02;;;;;;;14.00;8.25;;;;;;;15.87;74.11;102180.19;4878405;29;20055;-92
2021/07/23 00:22:27;;;;;;;14.25;9.00;;;;;;;16.02;73.78;102189.16;4878486;29;20031;-93
2021/07/23 00:24:53;;;;;;;13.98;9.52;;;;;;;16.11;72.89;102186.94;4894235;29;20016;-93
2021/07/23 00:27:18;;;;;;;16.08;8.68;;;;;;;16.23;72.57;102186.28;4878735;29;20048;-94
2021/07/23 00:29:44;;;;;;;12.25;8.40;;;;;;;16.29;72.34;102177.03;4909544;29;20019;-91
2021/07/23 00:32:10;;;;;;;14.13;8.38;;;;;;;16.33;71.92;102183.09;4909689;29;20024;-92
2021/07/23 00:34:35;;;;;;;13.00;8.73;;;;;;;16.54;71.41;102184.53;4924184;23;20529;-80
2021/07/23 00:37:01;;;;;;;13.88;8.35;;;;;;;16.64;71.36;102179.53;4916292;29;20130;-80
2021/07/23 00:39:26;;;;;;;12.32;8.32;;;;;;;16.59;71.35;102180.72;4916393;29;20040;-80
2021/07/23 00:41:52;;;;;;;11.07;7.78;;;;;;;16.61;71.58;102171.69;4917398;29;20376;-82
2021/07/23 00:44:17;;;;;;;12.88;8.25;;;;;;;16.76;71.24;102177.06;4916306;29;20043;-80
2021/07/23 00:46:42;;;;;;;13.88;8.18;;;;;;;16.83;70.78;102182.94;4917416;29;20024;-80
2021/07/23 00:49:08;;;;;;;11.75;7.45;;;;;;;16.98;70.22;102173.13;4916316;29;20028;-80
2021/07/23 00:51:33;;;;;;;10.52;7.00;;;;;;;16.91;70.41;102175.34;4917239;29;20048;-79
2021/07/23 00:53:59;;;;;;;11.68;7.43;;;;;;;16.83;70.65;102170.44;4931818;29;20032;-79
2021/07/23 00:56:26;;;;;;;11.85;8.68;;;;;;;16.92;70.81;102172.56;4917259;29;20032;-81
2021/07/23 00:58:52;;;;;;;12.55;8.15;;;;;;;17.12;70.14;102172.34;4915880;29;20031;-80
2021/07/23 01:01:17;;;;;;;10.80;7.53;;;;;;;17.14;70.14;102170.47;4915816;29;20396;-80
2021/07/23 01:03:43;;;;;;;10.80;7.97;;;;;;;17.23;69.99;102177.91;4916970;29;20376;-80
2021/07/23 01:06:08;;;;;;;10.10;7.53;;;;;;;17.25;70.01;102164.47;4916002;29;20091;-80
2021/07/23 01:08:34;;;;;;;12.18;8.45;;;;;;;17.22;70.16;102170.88;4931810;29;20091;-80
2021/07/23 01:10:59;;;;;;;10.55;8.40;;;;;;;17.26;70.03;102169.72;4917431;29;20096;-80
2021/07/23 01:13:25;;;;;;;20.83;8.32;;;;;;;17.31;70.23;102172.09;4932777;29;20103;-81
2021/07/23 01:15:50;;;;;;;8.75;7.55;;;;;;;17.35;70.31;102167.44;4918037;29;20432;-79
2021/07/23 01:18:15;;;;;;;11.32;7.55;;;;;;;17.33;70.27;102166.66;4918046;29;20457;-80
2021/07/23 01:20:43;;;;;;;12.05;7.93;;;;;;;17.24;70.54;102165.44;4932394;29;20042;-81
2021/07/23 01:23:08;;;;;;;10.23;8.07;;;;;;;17.39;70.28;102168.97;4932953;29;20078;-80
2021/07/23 01:25:35;;;;;;;11.75;8.02;;;;;;;17.39;70.22;102166.28;4917007;29;20384;-81
2021/07/23 01:28:00;;;;;;;10.90;7.72;;;;;;;17.47;70.11;102171.16;4932420;29;20030;-80
2021/07/23 01:30:26;;;;;;;11.48;7.80;;;;;;;17.54;69.76;102167.19;4917226;29;20027;-80
2021/07/23 01:32:52;;;;;;;11.30;7.72;;;;;;;17.48;70.19;102167.56;4916902;29;20038;-80
2021/07/23 01:35:17;;;;;;;10.63;8.07;;;;;;;17.50;70.26;102166.50;4931358;29;20052;-79
2021/07/23 01:37:45;;;;;;;11.55;8.15;;;;;;;17.60;69.96;102165.94;4899774;29;20028;-79
2021/07/23 01:40:11;;;;;;;10.25;7.72;;;;;;;17.62;70.06;102167.56;4919227;29;20388;-81
2021/07/23 01:42:36;;;;;;;11.88;8.63;;;;;;;17.67;69.60;102168.13;4919297;29;20028;-78
2021/07/23 01:45:03;;;;;;;11.00;8.52;;;;;;;17.51;69.92;102168.22;4920358;29;20091;-78
2021/07/23 01:47:28;;;;;;;11.55;8.57;;;;;;;17.61;69.50;102162.28;4920293;29;20190;-81
2021/07/23 01:49:53;;;;;;;12.00;7.47;;;;;;;17.60;69.48;102156.09;4920264;29;20028;-81
2021/07/23 01:52:19;;;;;;;13.02;8.50;;;;;;;17.58;69.76;102160.69;4920783;29;20040;-81
2021/07/23 01:54:45;;;;;;;11.93;8.10;;;;;;;17.65;69.50;102156.66;4919383;29;20028;-81
2021/07/23 01:57:10;;;;;;;12.63;7.70;;;;;;;17.70;69.41;102159.03;4920366;29;20064;-80
2021/07/23 01:59:35;;;;;;;11.13;8.25;;;;;;;17.69;69.34;102157.34;4934589;29;20043;-80
2021/07/23 02:02:01;;;;;;;12.30;8.13;;;;;;;17.75;69.41;102156.09;4918955;29;20253;-80
2021/07/23 02:04:27;;;;;;;12.82;8.80;;;;;;;17.53;70.50;102154.75;4918655;29;20115;-79
2021/07/23 02:06:52;;;;;;;10.90;8.88;;;;;;;17.53;70.72;102152.06;4919854;29;20039;-79
2021/07/23 02:09:18;;;;;;;12.10;8.43;;;;;;;17.50;70.63;102158.47;4919996;29;20040;-81
2021/07/23 02:11:43;;;;;;;11.88;9.07;;;;;;;17.34;70.86;102160.41;4919565;29;20028;-80
2021/07/23 02:14:09;;;;;;;14.65;9.05;;;;;;;17.45;70.31;102157.06;4919665;29;20036;-80
2021/07/23 02:16:37;;;;;;;10.80;8.20;;;;;;;17.53;69.83;102152.06;4919936;29;20020;-81
2021/07/23 02:19:03;;;;;;;12.98;8.15;;;;;;;17.59;69.81;102153.53;4919746;29;20025;-81
2021/07/23 02:21:29;;;;;;;13.38;8.40;;;;;;;17.54;69.80;102157.31;4919593;29;20543;-80
2021/07/23 02:23:54;;;;;;;11.57;8.10;;;;;;;17.61;69.70;102151.59;4918320;29;20036;-80
2021/07/23 02:26:21;;;;;;;9.73;7.65;;;;;;;17.61;69.59;102144.44;4919641;29;20024;-80
2021/07/23 02:28:46;;;;;;;10.48;7.85;;;;;;;17.57;69.59;102145.59;4919276;29;20060;-79
2021/07/23 02:31:12;;;;;;;10.65;8.35;;;;;;;17.58;69.79;102143.75;4919483;29;20038;-80
2021/07/23 02:33:38;;;;;;;11.43;7.57;;;;;;;17.33;70.32;102137.25;4917900;29;20052;-79
2021/07/23 02:36:03;;;;;;;9.80;7.93;;;;;;;17.51;69.87;102140.63;4919473;29;20427;-79
2021/07/23 02:38:29;;;;;;;9.15;7.97;;;;;;;17.46;69.97;102138.25;4919515;29;20067;-81
2021/07/23 02:40:56;;;;;;;11.32;7.78;;;;;;;17.37;70.47;102145.00;4919341;29;20108;-79
2021/07/23 02:43:21;;;;;;;10.00;7.88;;;;;;;17.49;70.37;102140.72;4919467;29;20028;-80
2021/07/23 02:45:47;;;;;;;9.40;7.82;;;;;;;17.35;70.96;102136.25;4918502;29;20123;-80
2021/07/23 02:48:12;;;;;;;10.27;8.38;;;;;;;17.34;71.31;102144.34;4918307;29;20034;-81
2021/07/23 02:50:38;;;;;;;11.88;8.88;;;;;;;17.41;71.01;102138.53;4918291;29;20024;-80
2021/07/23 02:53:03;;;;;;;12.63;9.00;;;;;;;17.48;70.75;102140.81;4919365;29;20024;-79
2021/07/23 02:55:29;;;;;;;10.80;7.82;;;;;;;17.49;70.41;102139.84;4902404;29;20376;-80
2021/07/23 02:57:54;;;;;;;11.40;8.70;;;;;;;17.56;70.52;102142.06;4918198;29;20024;-81
2021/07/23 03:00:20;;;;;;;12.70;8.68;;;;;;;17.56;70.61;102133.16;4918914;29;20044;-81
2021/07/23 03:02:45;;;;;;;12.45;9.23;;;;;;;17.51;70.78;102125.44;4919178;29;20103;-80
2021/07/23 03:05:10;;;;;;;15.10;9.63;;;;;;;17.50;70.72;102129.06;4919284;29;20064;-80
2021/07/23 03:07:36;;;;;;;14.77;9.60;;;;;;;17.47;70.78;102118.56;4919120;29;20059;-81
2021/07/23 03:10:03;;;;;;;13.35;9.40;;;;;;;17.52;70.80;102123.63;4917977;29;20052;-80
2021/07/23 03:12:28;;;;;;;12.68;9.15;;;;;;;17.53;70.60;102118.19;4919210;29;20030;-80
2021/07/23 03:14:54;;;;;;;13.25;9.07;;;;;;;17.45;71.17;102115.13;4918769;29;20032;-80
2021/07/23 03:17:19;;;;;;;15.23;9.27;;;;;;;17.57;70.60;102113.50;4919338;29;20049;-81
2021/07/23 03:19:44;;;;;;;12.80;8.75;;;;;;;17.59;70.52;102110.75;4919004;29;20032;-81
2021/07/23 03:22:10;;;;;;;13.05;9.15;;;;;;;17.54;70.95;102108.34;4919089;29;20028;-82
2021/07/23 03:24:35;;;;;;;10.95;8.77;;;;;;;17.52;71.03;102112.94;4917819;29;20087;-80
2021/07/23 03:27:01;;;;;;;11.55;9.00;;;;;;;17.55;70.96;102100.22;4918924;29;20036;-80
2021/07/23 03:29:27;;;;;;;14.40;9.63;;;;;;;17.49;71.05;102097.94;4918655;29;20087;-81
2021/07/23 03:31:53;;;;;;;12.65;9.23;;;;;;;17.48;70.93;102095.38;4918770;29;20028;-80
2021/07/23 03:34:18;;;;;;;13.13;8.98;;;;;;;17.38;71.74;102092.41;4933232;29;20062;-81
2021/07/23 03:36:44;;;;;;;14.35;8.85;;;;;;;17.43;71.76;102095.66;4917724;29;20029;-80
2021/07/23 03:39:09;;;;;;;14.75;9.55;;;;;;;17.50;71.70;102096.09;4918740;29;20431;-80
2021/07/23 03:41:34;;;;;;;13.85;9.50;;;;;;;17.34;72.11;102098.91;4918412;29;20460;-80
2021/07/23 03:44:00;;;;;;;12.38;9.68;;;;;;;17.31;72.04;102087.44;4918568;29;20032;-80
2021/07/23 03:46:25;;;;;;;17.23;9.43;;;;;;;17.31;71.81;102083.88;4918168;29;20032;-81
2021/07/23 03:48:53;;;;;;;13.07;8.82;;;;;;;17.54;70.99;102094.97;4918468;29;20028;-80
2021/07/23 03:51:19;;;;;;;14.88;9.63;;;;;;;17.44;70.99;102089.34;4918457;29;20067;-79
2021/07/23 03:53:44;;;;;;;14.02;9.45;;;;;;;17.42;70.73;102092.13;4918279;29;20026;-81
2021/07/23 03:56:10;;;;;;;14.73;8.98;;;;;;;17.54;70.08;102095.81;4918120;29;20025;-81
2021/07/23 03:58:36;;;;;;;13.35;8.75;;;;;;;17.39;70.69;102089.63;4916833;29;20028;-80
2021/07/23 04:01:08;;;;;;;11.60;8.38;;;;;;;17.28;70.65;102087.63;4917767;29;20035;-81
2021/07/23 04:03:33;;;;;;;15.85;8.70;;;;;;;17.25;71.08;102090.50;4917687;29;20463;-81
2021/07/23 04:05:59;;;;;;;14.23;8.95;;;;;;;17.25;70.96;102086.94;4918145;29;20088;-79
2021/07/23 04:08:25;;;;;;;11.50;8.18;;;;;;;17.28;71.13;102095.66;4917965;29;20477;-81
2021/07/23 04:10:51;;;;;;;11.35;8.13;;;;;;;17.19;71.33;102091.72;4917963;29;20024;-79
2021/07/23 04:13:16;;;;;;;12.68;8.13;;;;;;;17.25;71.00;102089.63;4917767;29;20463;-81
2021/07/23 04:15:42;;;;;;;13.35;8.10;;;;;;;17.41;70.57;102093.06;4918792;29;20032;-81
2021/07/23 04:18:07;;;;;;;10.60;7.75;;;;;;;17.35;70.61;102089.91;4917900;29;20064;-80
2021/07/23 04:20:33;;;;;;;13.65;7.65;;;;;;;17.32;70.71;102088.28;4917734;29;20031;-80
2021/07/23 04:22:59;;;;;;;9.68;7.10;;;;;;;17.25;70.87;102093.16;4916529;29;20039;-79
2021/07/23 04:25:24;;;;;;;11.82;7.45;;;;;;;17.24;70.89;102095.94;4917664;29;20384;-80
2021/07/23 04:27:49;;;;;;;12.73;7.38;;;;;;;17.41;70.19;102093.06;4917475;29;20040;-80
2021/07/23 04:30:16;;;;;;;10.32;7.07;;;;;;;17.17;71.10;102098.97;4917383;29;20020;-81
2021/07/23 04:35:16;;;;;;;11.98;6.57;;;;;;;17.27;71.12;102090.41;4944015;23;20471;-85
2021/07/23 04:37:42;;;;;;;11.55;6.35;;;;;;;17.15;71.21;102087.50;4919943;29;20154;-82
2021/07/23 04:40:08;;;;;;;10.95;5.93;;;;;;;17.29;70.71;102088.47;4936360;29;20060;-82
2021/07/23 04:42:33;;;;;;;9.15;6.22;;;;;;;17.47;70.19;102086.47;4919682;29;20055;-82
2021/07/23 04:44:59;;;;;;;12.02;6.13;;;;;;;17.46;70.38;102084.78;4936496;29;20078;-81
2021/07/23 04:47:24;;;;;;;10.52;6.13;;;;;;;17.48;70.26;102080.16;4936103;29;20027;-80
2021/07/23 04:49:50;;;;;;;9.55;6.13;;;;;;;17.50;70.25;102088.09;4936403;29;20033;-81
2021/07/23 04:52:15;;;;;;;8.52;5.68;;;;;;;17.47;70.47;102085.59;4936487;29;20024;-81
2021/07/23 04:54:41;;;;;;;8.68;5.68;;;;;;;17.48;69.79;102080.16;4903587;29;20027;-82
2021/07/23 04:57:12;;;;;;;9.10;5.78;;;;;;;17.38;69.54;102089.72;4903981;29;20019;-80
2021/07/23 04:59:37;;;;;;;8.25;5.93;;;;;;;17.44;68.46;102097.38;4937333;29;20574;-82
2021/07/23 05:02:03;;;;;;;9.43;5.90;;;;;;;17.58;68.21;102093.81;4936788;29;20023;-81
2021/07/23 05:04:28;;;;;;;10.55;5.90;;;;;;;17.54;68.15;102090.47;4921542;29;20522;-81
2021/07/23 05:06:54;;;;;;;9.35;5.80;;;;;;;17.49;68.46;102089.06;4939847;29;20027;-81
2021/07/23 05:09:19;;;;;;;9.23;5.97;;;;;;;17.77;67.65;102087.28;4938332;29;20046;-81
2021/07/23 05:11:45;;;;;;;7.35;5.80;;;;;;;17.65;67.59;102092.47;4936585;29;20145;-81
2021/07/23 05:14:11;;;;;;;7.68;6.13;;;;;;;17.51;67.76;102085.31;4919814;29;20027;-80
2021/07/23 05:16:38;;;;;;;9.13;6.63;;;;;;;17.76;67.31;102083.75;4919937;29;20086;-82
2021/07/23 05:19:04;;;;;;;9.20;5.90;;;;;;;17.66;66.36;102085.31;4903896;29;20031;-80
2021/07/23 05:21:30;;;;;;;7.70;5.70;;;;;;;17.61;66.85;102085.59;4920274;29;20027;-80
2021/07/23 05:23:55;;;;;;;7.95;5.80;;;;;;;18.02;65.60;102085.72;4903957;29;20028;-80
2021/07/23 05:26:21;;;;;;;8.65;6.38;;;;;;;17.85;65.90;102082.31;4919681;29;20034;-81
2021/07/23 05:28:46;;;;;;;10.50;6.32;;;;;;;17.88;65.67;102082.13;4919711;29;20046;-81
2021/07/23 05:31:12;;;;;;;8.68;6.35;;;;;;;17.90;65.76;102082.03;4936653;29;20031;-81
2021/07/23 05:33:37;;;;;;;11.45;6.50;;;;;;;18.26;65.06;102093.13;4916205;29;20103;-81
2021/07/23 05:36:03;;;;;;;9.75;6.00;;;;;;;18.24;64.22;102089.69;4917869;29;20036;-80
2021/07/23 05:38:28;;;;;;;9.95;6.85;;;;;;;18.08;64.85;102085.31;4917432;29;20040;-79
2021/07/23 05:40:54;;;;;;;9.20;6.82;;;;;;;18.18;64.45;102096.31;4918166;29;20028;-79
2021/07/23 05:43:19;;;;;;;10.15;6.07;;;;;;;17.81;65.42;102081.66;4916828;29;20031;-79
2021/07/23 05:45:45;;;;;;;9.20;6.53;;;;;;;18.16;64.47;102083.03;4917975;29;20361;-81
2021/07/23 05:48:10;;;;;;;9.52;6.90;;;;;;;17.86;65.20;102089.38;4916716;29;20039;-80
2021/07/23 05:50:36;;;;;;;11.70;7.38;;;;;;;18.01;64.69;102075.97;4916984;29;20026;-81
2021/07/23 05:53:01;;;;;;;8.02;6.53;;;;;;;18.33;64.27;102088.22;4915505;29;20094;-79
2021/07/23 05:55:27;;;;;;;8.25;6.63;;;;;;;18.02;64.57;102085.72;4916522;29;20035;-80
2021/07/23 05:57:56;;;;;;;9.45;7.05;;;;;;;18.00;64.27;102083.13;4915370;29;20377;-81
2021/07/23 06:00:23;;;;;;;9.93;6.80;;;;;;;18.26;63.77;102082.41;4915103;29;20121;-79
2021/07/23 06:02:48;;;;;;;9.02;6.50;;;;;;;18.23;63.11;102080.78;4914978;29;20031;-82
2021/07/23 06:05:14;;;;;;;10.75;6.43;;;;;;;18.38;63.24;102076.25;4915356;29;20032;-79
2021/07/23 06:07:40;;;;;;;9.23;6.85;;;;;;;18.39;62.95;102074.41;4916558;29;20459;-79
2021/07/23 06:10:05;;;;;;;8.35;6.40;;;;;;;18.60;61.78;102080.16;4917178;29;20083;-81
2021/07/23 06:12:32;;;;;;;9.13;6.88;;;;;;;18.54;61.62;102075.22;4917121;29;20055;-81
2021/07/23 06:14:57;;;;;;;8.52;6.18;;;;;;;18.53;61.64;102073.47;4915522;29;20036;-80
2021/07/23 06:17:23;;;;;;;11.50;6.80;;;;;;;18.65;61.31;102066.44;4916228;29;20032;-80
2021/07/23 06:19:48;;;;;;;9.50;6.53;;;;;;;18.57;61.21;102076.81;4916199;29;20029;-79
2021/07/23 06:22:15;;;;;;;8.90;6.38;;;;;;;19.00;60.41;102073.88;4916473;29;20035;-81
2021/07/23 06:24:40;;;;;;;9.32;6.50;;;;;;;18.91;60.71;102070.00;4916395;29;20051;-80
2021/07/23 06:27:06;;;;;;;9.70;6.10;;;;;;;19.08;59.78;102076.00;4919880;29;20550;-80
2021/07/23 06:29:31;;;;;;;8.52;6.63;;;;;;;18.71;60.58;102074.06;4919791;29;20036;-80
2021/07/23 06:31:58;;;;;;;10.02;6.85;;;;;;;18.77;60.81;102070.09;4918447;29;20036;-80
2021/07/23 06:34:23;;;;;;;8.27;6.20;;;;;;;18.68;60.42;102069.78;4931113;29;20435;-79
2021/07/23 06:36:49;;;;;;;8.77;6.25;;;;;;;19.03;59.30;102067.44;4939044;29;20055;-81
2021/07/23 06:39:14;;;;;;;9.98;6.82;;;;;;;19.08;58.97;102062.59;4936934;29;20386;-84
2021/07/23 06:41:40;;;;;;;9.90;6.28;;;;;;;19.29;58.43;102059.41;4938507;29;20383;-81
2021/07/23 06:44:05;;;;;;;9.70;6.20;;;;;;;19.42;58.50;102060.22;4938559;29;20032;-80
2021/07/23 06:46:30;;;;;;;10.38;5.82;;;;;;;19.19;58.59;102053.84;4938311;29;20032;-81
2021/07/23 06:48:56;;;;;;;8.57;5.70;;;;;;;19.05;58.61;102052.09;4921024;29;20035;-81
2021/07/23 06:51:21;;;;;;;8.68;5.95;;;;;;;19.46;58.35;102054.66;4938138;29;20089;-81
2021/07/23 06:53:47;;;;;;;6.57;5.60;;;;;;;19.31;58.84;102060.16;4938009;29;20040;-81
2021/07/23 06:56:13;;;;;;;8.48;6.30;;;;;;;19.77;57.14;102058.66;4938175;29;20034;-81
2021/07/23 06:58:38;;;;;;;8.43;6.15;;;;;;;19.52;58.45;102062.25;4938041;29;20046;-79
2021/07/23 07:01:07;;;;;;;8.68;5.85;;;;;;;19.69;57.58;102057.50;4937976;29;20471;-82
2021/07/23 07:03:32;;;;;;;14.93;5.75;;;;;;;20.22;55.27;102062.59;4937871;29;20605;-81
2021/07/23 07:05:58;;;;;;;9.13;6.20;;;;;;;20.03;55.34;102061.28;4920123;29;20047;-80
2021/07/23 07:08:24;;;;;;;7.85;5.80;;;;;;;20.23;54.86;102058.94;4931119;29;20028;-81
2021/07/23 07:10:51;;;;;;;8.35;5.75;;;;;;;20.21;55.23;102063.56;4901930;29;20040;-80
2021/07/23 07:13:17;;;;;;;7.05;5.60;;;;;;;19.75;56.48;102059.75;4918742;29;20035;-83
2021/07/23 07:15:42;;;;;;;8.32;5.78;;;;;;;20.19;55.59;102060.16;4902238;29;20028;-81
2021/07/23 07:18:08;;;;;;;7.72;6.05;;;;;;;20.34;55.41;102063.50;4918566;29;20024;-81
2021/07/23 07:20:33;;;;;;;10.10;6.30;;;;;;;20.02;56.10;102066.78;4918610;29;20479;-81
2021/07/23 07:22:59;;;;;;;7.03;6.28;;;;;;;20.06;56.36;102062.00;4901747;29;20038;-81
2021/07/23 07:25:25;;;;;;;9.73;6.10;;;;;;;20.34;55.98;102058.13;4919019;29;20025;-80
2021/07/23 07:27:50;;;;;;;9.88;6.20;;;;;;;20.44;55.77;102068.16;4918840;29;20103;-80
2021/07/23 07:30:16;;;;;;;9.63;6.50;;;;;;;20.31;55.54;102069.09;4918677;29;20036;-80
2021/07/23 07:32:41;;;;;;;8.35;6.35;;;;;;;20.23;55.69;102068.81;4918369;29;20380;-81
2021/07/23 07:35:07;;;;;;;9.50;6.35;;;;;;;19.64;57.03;102071.25;4918293;29;20152;-80
2021/07/23 07:37:35;;;;;;;9.63;6.53;;;;;;;19.94;56.95;102063.75;4917859;29;20482;-80
2021/07/23 07:40:01;;;;;;;11.80;6.55;;;;;;;20.28;56.14;102064.81;4901918;29;20029;-80
2021/07/23 07:42:27;;;;;;;9.02;6.40;;;;;;;20.48;55.44;102065.13;4918645;29;20032;-80
2021/07/23 07:44:52;;;;;;;9.90;6.40;;;;;;;20.23;56.25;102066.97;4918810;29;20044;-82
2021/07/23 07:47:18;;;;;;;8.95;6.63;;;;;;;20.32;55.35;102064.59;4922569;29;20028;-81
2021/07/23 07:49:43;;;;;;;7.43;6.15;;;;;;;20.23;55.33;102069.66;4922330;29;20035;-81
2021/07/23 07:52:08;;;;;;;9.18;6.55;;;;;;;20.35;55.74;102062.50;4921235;29;20026;-79
2021/07/23 07:54:34;;;;;;;10.25;6.93;;;;;;;20.74;54.43;102073.00;4901934;29;20032;-80
2021/07/23 07:57:07;;;;;;;11.93;6.80;;;;;;;20.50;55.22;102076.63;4902506;29;20040;-81
2021/07/23 07:59:32;;;;;;;;;;;;;;;20.36;55.26;102076.81;4918850;29;20066;-79
2021/07/23 08:01:58;;;;;;;10.35;6.63;;;;;;;20.35;55.33;102075.09;4917928;29;19958;-81
2021/07/23 08:04:23;;;;;;;11.55;7.03;;;;;;;20.18;56.48;102079.88;4918031;29;20044;-80
2021/07/23 08:06:48;;;;;;;9.43;7.00;;;;;;;19.78;57.40;102073.78;4917794;29;20040;-80
2021/07/23 08:09:15;;;;;;;9.18;7.38;;;;;;;20.45;56.13;102084.16;4917880;29;20031;-82
2021/07/23 08:11:41;;;;;;;10.43;8.10;;;;;;;20.36;56.55;102077.66;4917839;29;20445;-80
2021/07/23 08:14:06;;;;;;;9.93;7.80;;;;;;;20.33;56.39;102079.72;4900905;29;20120;-79
2021/07/23 08:16:32;;;;;;;8.88;7.90;;;;;;;20.07;56.88;102079.84;4917549;29;20109;-80
2021/07/23 08:19:01;;;;;;;10.70;8.07;;;;;;;20.55;55.79;102076.28;4917426;29;20028;-81
2021/07/23 08:21:28;;;;;;;13.00;9.15;;;;;;;20.54;55.84;102080.78;4917659;29;20423;-80
2021/07/23 08:23:54;;;;;;;9.50;8.23;;;;;;;20.13;57.13;102082.09;4917651;29;20115;-81
2021/07/23 08:26:19;;;;;;;12.70;8.38;;;;;;;20.39;55.81;102079.25;4917644;29;20032;-81
2021/07/23 08:28:45;;;;;;;11.05;9.02;;;;;;;20.25;56.96;102075.78;4917510;29;20036;-82
2021/07/23 08:31:10;;;;;;;10.40;8.07;;;;;;;19.97;57.27;102080.47;4917555;29;20038;-81
2021/07/23 08:33:36;;;;;;;11.75;8.75;;;;;;;19.90;57.33;102073.84;4937742;23;20059;-92
2021/07/23 08:36:02;;;;;;;14.13;9.25;;;;;;;20.04;57.09;102071.03;4925183;29;20044;-91
2021/07/23 08:38:27;;;;;;;10.30;8.45;;;;;;;20.21;56.75;102073.44;4894221;29;20023;-91
2021/07/23 08:40:52;;;;;;;11.95;9.02;;;;;;;20.44;56.34;102068.16;4940965;29;20044;-91
2021/07/23 08:43:18;;;;;;;10.18;8.68;;;;;;;20.27;56.43;102075.69;4924683;29;20024;-90
2021/07/23 08:45:43;;;;;;;11.27;9.20;;;;;;;20.00;56.98;102069.53;4903940;29;20036;-91
2021/07/23 08:48:09;;;;;;;12.07;9.85;;;;;;;20.29;56.44;102063.84;4872786;29;20028;-90
2021/07/23 08:50:34;;;;;;;10.85;8.88;;;;;;;20.32;56.38;102069.97;4920316;29;20020;-91
2021/07/23 08:53:02;;;;;;;10.65;9.05;;;;;;;20.32;56.71;102073.47;4903850;29;20039;-92
2021/07/23 08:55:32;;;;;;;11.98;9.95;;;;;;;20.50;56.08;102070.38;4888275;29;20039;-92
2021/07/23 08:57:58;;;;;;;10.57;8.77;;;;;;;20.34;56.37;102065.31;4920597;29;20051;-91
2021/07/23 09:00:23;;;;;;;13.35;8.95;;;;;;;20.10;57.09;102071.56;4902641;29;20040;-93
2021/07/23 09:02:51;;;;;;;12.00;9.73;;;;;;;20.28;56.70;102061.25;4871099;29;20028;-91
2021/07/23 09:05:18;;;;;;;13.50;9.35;;;;;;;20.48;56.18;102061.56;4901602;29;20047;-93
2021/07/23 09:07:43;;;;;;;10.88;9.10;;;;;;;20.03;57.74;102063.97;4871328;29;20412;-90
2021/07/23 09:10:09;;;;;;;10.82;9.73;;;;;;;20.12;57.29;102067.78;4871436;29;20024;-90
2021/07/23 09:12:42;;;;;;;12.90;10.05;;;;;;;20.49;56.26;102061.44;4901881;29;20380;-89
2021/07/23 09:15:19;;;;;;;;;;;;;;;20.98;55.01;102064.03;4919440;29;20024;-91
2021/07/23 09:17:45;;;;;;;13.40;9.43;;;;;;;20.86;54.80;102057.78;4901731;29;19970;-90
2021/07/23 09:20:10;;;;;;;13.00;9.40;;;;;;;21.16;54.28;102061.72;4918488;29;20032;-90
2021/07/23 09:23:06;;;;;;;12.18;8.68;;;;;;;21.36;53.85;102059.28;4902107;29;20039;-91
2021/07/23 09:25:41;;;;;;;12.25;9.25;;;;;;;21.07;54.90;102058.91;4917516;29;20055;-91
2021/07/23 09:28:28;;;;;;;11.02;8.43;;;;;;;21.45;53.47;102062.22;4917982;29;20032;-89
2021/07/23 09:30:55;;;;;;;10.80;9.43;;;;;;;21.58;53.14;102062.94;4901031;29;20039;-92
2021/07/23 09:33:31;;;;;;;12.40;10.05;;;;;;;21.69;53.30;102053.97;4885524;29;20492;-91
2021/07/23 09:36:10;;;;;;;14.57;10.27;;;;;;;21.31;54.43;102049.84;4901066;29;20049;-89
2021/07/23 09:38:42;;;;;;;10.80;9.32;;;;;;;21.46;53.86;102050.47;4917987;29;20111;-88
2021/07/23 09:41:09;;;;;;;11.63;9.15;;;;;;;21.10;54.59;102047.91;4886852;29;20028;-89
2021/07/23 09:43:41;;;;;;;12.45;9.27;;;;;;;21.24;53.99;102041.44;4885406;29;20036;-90
2021/07/23 09:46:16;;;;;;;;;;;;;;;21.53;53.76;102047.16;4887090;29;20043;-91
2021/07/23 09:48:42;;;;;;;13.60;9.55;;;;;;;21.69;53.52;102040.53;4918302;29;19915;-92
2021/07/23 09:51:08;;;;;;;11.63;9.95;;;;;;;21.25;54.90;102033.25;4886147;29;20024;-93
2021/07/23 09:53:34;;;;;;;11.10;9.48;;;;;;;21.69;53.03;102035.16;4885759;29;20028;-90
2021/07/23 09:56:00;;;;;;;10.90;9.80;;;;;;;21.47;53.17;102030.66;4870760;29;20494;-91
2021/07/23 09:58:25;;;;;;;14.88;10.98;;;;;;;21.76;53.50;102022.91;4886343;29;20028;-92
2021/07/23 10:00:56;;;;;;;15.27;11.82;;;;;;;21.40;53.68;102033.00;4872627;29;20059;-92
2021/07/23 10:03:23;;;;;;;14.23;11.10;;;;;;;21.16;54.20;102017.84;4907693;29;20036;-92
2021/07/23 10:06:09;;;;;;;13.63;10.90;;;;;;;20.91;55.03;102015.25;4909415;29;20079;-92
2021/07/23 10:08:46;;;;;;;13.40;11.25;;;;;;;21.07;54.69;102011.34;4893258;29;20387;-91
2021/07/23 10:11:12;;;;;;;13.73;10.82;;;;;;;21.21;54.79;102012.09;4911084;29;20028;-92
2021/07/23 10:13:43;;;;;;;13.30;10.88;;;;;;;21.71;53.48;102011.66;4908407;29;20024;-90
2021/07/23 10:16:10;;;;;;;14.30;11.82;;;;;;;21.59;53.35;102007.28;4922071;29;20062;-90
2021/07/23 10:18:35;;;;;;;13.70;11.55;;;;;;;21.53;53.14;102005.94;4905968;29;20088;-90
2021/07/23 10:21:05;;;;;;;14.00;12.07;;;;;;;21.60;53.00;102006.28;4907321;29;20136;-90
2021/07/23 10:23:31;;;;;;;14.73;12.27;;;;;;;21.53;53.41;102012.19;4924821;29;20024;-92
2021/07/23 10:25:56;;;;;;;17.02;13.13;;;;;;;22.16;51.68;102004.41;4911005;29;20034;-94
2021/07/23 10:28:44;;;;;;;13.93;12.23;;;;;;;21.71;52.38;102002.72;4909179;29;20028;-93
2021/07/23 10:31:21;;;;;;;15.00;12.10;;;;;;;21.80;52.72;101996.59;4901352;29;20056;-93
2021/07/23 10:34:00;;;;;;;14.77;12.88;;;;;;;22.05;51.50;101999.94;4923218;29;20048;-91
2021/07/23 10:36:26;;;;;;;15.93;12.95;;;;;;;22.27;51.08;101998.09;4943878;29;20045;-91
2021/07/23 10:39:07;;;;;;;17.70;13.70;;;;;;;22.03;51.00;102000.06;4927584;29;20040;-91
2021/07/23 10:41:39;;;;;;;19.50;13.13;;;;;;;22.12;50.86;101997.59;4943836;29;20028;-89
2021/07/23 10:44:12;;;;;;;17.75;13.45;;;;;;;21.71;52.28;101997.34;4943015;29;20043;-91
2021/07/23 10:46:46;;;;;;;15.30;13.55;;;;;;;21.54;52.82;101992.34;4918233;29;20032;-89
2021/07/23 10:49:27;;;;;;;19.75;13.77;;;;;;;21.56;52.84;101991.41;4936590;29;20035;-89
2021/07/23 10:51:58;;;;;;;15.70;12.70;;;;;;;21.40;53.16;101998.03;4925929;29;20039;-87
2021/07/23 10:54:24;;;;;;;16.40;12.68;;;;;;;21.33;52.98;101996.78;4935753;29;20064;-90
2021/07/23 10:57:02;;;;;;;15.00;12.65;;;;;;;21.37;53.32;101992.91;4919945;29;20091;-91
2021/07/23 10:59:42;;;;;;;15.77;12.10;;;;;;;21.53;52.91;101998.72;4922038;29;20020;-91
2021/07/23 11:02:15;;;;;;;15.63;12.48;;;;;;;21.38;53.47;101994.59;4921378;29;20404;-94
2021/07/23 11:04:47;;;;;;;14.55;12.27;;;;;;;21.44;53.89;101998.63;4888373;29;20047;-92
2021/07/23 11:07:13;;;;;;;15.05;11.80;;;;;;;21.22;53.88;101992.28;4904778;29;20059;-90
2021/07/23 11:09:39;;;;;;;14.60;11.88;;;;;;;21.45;53.83;102001.19;4921118;29;20024;-89
2021/07/23 11:12:21;;;;;;;15.40;11.65;;;;;;;21.39;53.85;101991.78;4906043;29;20028;-89
2021/07/23 11:15:05;;;;;;;14.52;11.50;;;;;;;20.57;56.04;101987.47;4921686;29;20021;-89
2021/07/23 11:17:31;;;;;;;13.82;11.18;;;;;;;20.72;55.35;101986.28;4904200;29;20062;-91
2021/07/23 11:20:03;;;;;;;13.55;10.65;;;;;;;20.77;55.38;101976.00;4888798;29;20099;-91